sensor_id;sensor_type;location;lat;lon;timestamp;P1;durP1;ratioP1;P2;durP2;ratioP2
18752;SDS011;9505;50.882;5.350;2024-01-30T00:01:35;53.72;;;10.70;;
18752;SDS011;9505;50.882;5.350;2024-01-30T00:04:01;53.30;;;10.55;;
18752;SDS011;9505;50.882;5.350;2024-01-30T00:06:27;56.65;;;11.57;;
18752;SDS011;9505;50.882;5.350;2024-01-30T00:08:53;47.63;;;10.75;;
18752;SDS011;9505;50.882;5.350;2024-01-30T00:11:18;50.40;;;10.35;;
18752;SDS011;9505;50.882;5.350;2024-01-30T00:13:44;75.75;;;15.23;;
18752;SDS011;9505;50.882;5.350;2024-01-30T00:16:19;42.65;;;8.98;;
18752;SDS011;9505;50.882;5.350;2024-01-30T00:18:46;48.85;;;10.13;;
18752;SDS011;9505;50.882;5.350;2024-01-30T00:21:11;49.85;;;10.30;;
18752;SDS011;9505;50.882;5.350;2024-01-30T00:23:37;41.88;;;8.88;;
18752;SDS011;9505;50.882;5.350;2024-01-30T00:26:02;75.63;;;12.05;;
18752;SDS011;9505;50.882;5.350;2024-01-30T00:28:29;37.63;;;8.15;;
18752;SDS011;9505;50.882;5.350;2024-01-30T00:30:54;43.65;;;8.45;;
18752;SDS011;9505;50.882;5.350;2024-01-30T00:33:20;48.60;;;9.43;;
18752;SDS011;9505;50.882;5.350;2024-01-30T00:35:46;36.88;;;7.95;;
18752;SDS011;9505;50.882;5.350;2024-01-30T00:38:12;43.25;;;8.93;;
18752;SDS011;9505;50.882;5.350;2024-01-30T00:40:38;48.05;;;9.32;;
18752;SDS011;9505;50.882;5.350;2024-01-30T00:43:03;49.78;;;9.18;;
18752;SDS011;9505;50.882;5.350;2024-01-30T00:45:29;46.70;;;8.80;;
18752;SDS011;9505;50.882;5.350;2024-01-30T00:47:54;38.85;;;8.20;;
18752;SDS011;9505;50.882;5.350;2024-01-30T00:50:20;26.05;;;6.93;;
18752;SDS011;9505;50.882;5.350;2024-01-30T00:52:46;18.85;;;6.50;;
18752;SDS011;9505;50.882;5.350;2024-01-30T00:55:12;41.53;;;8.38;;
18752;SDS011;9505;50.882;5.350;2024-01-30T00:57:39;28.50;;;7.75;;
18752;SDS011;9505;50.882;5.350;2024-01-30T01:00:07;41.42;;;8.15;;
18752;SDS011;9505;50.882;5.350;2024-01-30T01:02:34;44.90;;;9.60;;
18752;SDS011;9505;50.882;5.350;2024-01-30T01:05:00;41.83;;;8.23;;
18752;SDS011;9505;50.882;5.350;2024-01-30T01:07:27;47.88;;;8.48;;
18752;SDS011;9505;50.882;5.350;2024-01-30T01:09:52;43.13;;;8.40;;
18752;SDS011;9505;50.882;5.350;2024-01-30T01:12:18;45.35;;;8.55;;
18752;SDS011;9505;50.882;5.350;2024-01-30T01:14:44;55.45;;;9.02;;
18752;SDS011;9505;50.882;5.350;2024-01-30T01:17:10;62.33;;;10.73;;
18752;SDS011;9505;50.882;5.350;2024-01-30T01:19:36;41.88;;;8.30;;
18752;SDS011;9505;50.882;5.350;2024-01-30T01:22:01;47.33;;;9.35;;
18752;SDS011;9505;50.882;5.350;2024-01-30T01:24:28;59.83;;;9.93;;
18752;SDS011;9505;50.882;5.350;2024-01-30T01:26:55;38.55;;;8.25;;
18752;SDS011;9505;50.882;5.350;2024-01-30T01:29:22;40.88;;;8.32;;
18752;SDS011;9505;50.882;5.350;2024-01-30T01:31:53;45.47;;;8.77;;
18752;SDS011;9505;50.882;5.350;2024-01-30T01:34:22;41.45;;;8.10;;
18752;SDS011;9505;50.882;5.350;2024-01-30T01:36:51;45.20;;;9.05;;
18752;SDS011;9505;50.882;5.350;2024-01-30T01:39:20;45.15;;;8.60;;
18752;SDS011;9505;50.882;5.350;2024-01-30T01:41:47;45.38;;;9.65;;
18752;SDS011;9505;50.882;5.350;2024-01-30T01:44:13;47.10;;;8.55;;
18752;SDS011;9505;50.882;5.350;2024-01-30T01:46:39;43.65;;;8.45;;
18752;SDS011;9505;50.882;5.350;2024-01-30T01:49:05;38.17;;;7.68;;
18752;SDS011;9505;50.882;5.350;2024-01-30T01:51:33;39.30;;;7.93;;
18752;SDS011;9505;50.882;5.350;2024-01-30T01:54:01;40.55;;;8.60;;
18752;SDS011;9505;50.882;5.350;2024-01-30T01:56:29;45.63;;;7.70;;
18752;SDS011;9505;50.882;5.350;2024-01-30T01:58:56;43.15;;;8.00;;
18752;SDS011;9505;50.882;5.350;2024-01-30T02:01:26;37.42;;;7.45;;
18752;SDS011;9505;50.882;5.350;2024-01-30T02:03:53;39.13;;;8.23;;
18752;SDS011;9505;50.882;5.350;2024-01-30T02:06:20;44.17;;;8.30;;
18752;SDS011;9505;50.882;5.350;2024-01-30T02:08:46;44.60;;;8.23;;
18752;SDS011;9505;50.882;5.350;2024-01-30T02:11:12;39.63;;;7.13;;
18752;SDS011;9505;50.882;5.350;2024-01-30T02:13:38;45.72;;;8.07;;
18752;SDS011;9505;50.882;5.350;2024-01-30T02:16:03;38.90;;;7.13;;
18752;SDS011;9505;50.882;5.350;2024-01-30T02:18:29;46.83;;;8.45;;
18752;SDS011;9505;50.882;5.350;2024-01-30T02:20:56;48.80;;;8.73;;
18752;SDS011;9505;50.882;5.350;2024-01-30T02:23:26;43.22;;;8.18;;
18752;SDS011;9505;50.882;5.350;2024-01-30T02:25:52;40.65;;;8.40;;
18752;SDS011;9505;50.882;5.350;2024-01-30T02:28:18;40.38;;;7.57;;
18752;SDS011;9505;50.882;5.350;2024-01-30T02:30:45;33.35;;;6.72;;
18752;SDS011;9505;50.882;5.350;2024-01-30T02:33:12;38.75;;;7.93;;
18752;SDS011;9505;50.882;5.350;2024-01-30T02:35:38;40.20;;;7.85;;
18752;SDS011;9505;50.882;5.350;2024-01-30T02:38:04;35.95;;;7.10;;
18752;SDS011;9505;50.882;5.350;2024-01-30T02:40:30;48.38;;;8.13;;
18752;SDS011;9505;50.882;5.350;2024-01-30T02:42:57;39.72;;;7.18;;
18752;SDS011;9505;50.882;5.350;2024-01-30T02:45:23;44.75;;;7.65;;
18752;SDS011;9505;50.882;5.350;2024-01-30T02:47:49;40.42;;;6.95;;
18752;SDS011;9505;50.882;5.350;2024-01-30T02:50:15;37.97;;;7.25;;
18752;SDS011;9505;50.882;5.350;2024-01-30T02:52:41;47.63;;;8.00;;
18752;SDS011;9505;50.882;5.350;2024-01-30T02:55:08;38.58;;;7.10;;
18752;SDS011;9505;50.882;5.350;2024-01-30T02:57:34;40.75;;;7.18;;
18752;SDS011;9505;50.882;5.350;2024-01-30T03:00:00;38.13;;;7.30;;
18752;SDS011;9505;50.882;5.350;2024-01-30T03:02:26;42.90;;;7.22;;
18752;SDS011;9505;50.882;5.350;2024-01-30T03:04:51;43.50;;;7.90;;
18752;SDS011;9505;50.882;5.350;2024-01-30T03:07:17;39.20;;;7.55;;
18752;SDS011;9505;50.882;5.350;2024-01-30T03:09:43;38.72;;;7.80;;
18752;SDS011;9505;50.882;5.350;2024-01-30T03:12:09;37.53;;;7.15;;
18752;SDS011;9505;50.882;5.350;2024-01-30T03:14:35;45.20;;;7.78;;
18752;SDS011;9505;50.882;5.350;2024-01-30T03:17:00;39.42;;;6.65;;
18752;SDS011;9505;50.882;5.350;2024-01-30T03:19:26;37.67;;;6.88;;
18752;SDS011;9505;50.882;5.350;2024-01-30T03:21:52;39.22;;;7.10;;
18752;SDS011;9505;50.882;5.350;2024-01-30T03:24:18;36.35;;;7.00;;
18752;SDS011;9505;50.882;5.350;2024-01-30T03:26:44;46.70;;;7.75;;
18752;SDS011;9505;50.882;5.350;2024-01-30T03:29:09;42.50;;;7.53;;
18752;SDS011;9505;50.882;5.350;2024-01-30T03:31:35;45.50;;;7.95;;
18752;SDS011;9505;50.882;5.350;2024-01-30T03:34:01;36.88;;;6.70;;
18752;SDS011;9505;50.882;5.350;2024-01-30T03:36:27;39.13;;;6.80;;
18752;SDS011;9505;50.882;5.350;2024-01-30T03:38:52;34.00;;;6.63;;
18752;SDS011;9505;50.882;5.350;2024-01-30T03:41:18;31.63;;;6.50;;
18752;SDS011;9505;50.882;5.350;2024-01-30T03:43:44;38.13;;;6.85;;
18752;SDS011;9505;50.882;5.350;2024-01-30T03:46:11;35.28;;;6.60;;
18752;SDS011;9505;50.882;5.350;2024-01-30T03:48:37;33.95;;;6.70;;
18752;SDS011;9505;50.882;5.350;2024-01-30T03:51:03;36.08;;;7.05;;
18752;SDS011;9505;50.882;5.350;2024-01-30T03:53:29;35.47;;;6.25;;
18752;SDS011;9505;50.882;5.350;2024-01-30T03:55:55;39.40;;;7.25;;
18752;SDS011;9505;50.882;5.350;2024-01-30T03:58:21;52.03;;;8.38;;
18752;SDS011;9505;50.882;5.350;2024-01-30T04:00:47;38.00;;;7.32;;
18752;SDS011;9505;50.882;5.350;2024-01-30T04:03:16;37.42;;;6.30;;
18752;SDS011;9505;50.882;5.350;2024-01-30T04:05:42;39.40;;;7.10;;
18752;SDS011;9505;50.882;5.350;2024-01-30T04:08:07;44.65;;;7.88;;
18752;SDS011;9505;50.882;5.350;2024-01-30T04:10:33;43.65;;;7.60;;
18752;SDS011;9505;50.882;5.350;2024-01-30T04:12:59;38.92;;;7.13;;
18752;SDS011;9505;50.882;5.350;2024-01-30T04:15:25;47.42;;;7.60;;
18752;SDS011;9505;50.882;5.350;2024-01-30T04:17:51;35.40;;;6.85;;
18752;SDS011;9505;50.882;5.350;2024-01-30T04:20:17;19.35;;;4.95;;
18752;SDS011;9505;50.882;5.350;2024-01-30T04:22:43;46.35;;;8.00;;
18752;SDS011;9505;50.882;5.350;2024-01-30T04:25:09;31.25;;;6.45;;
18752;SDS011;9505;50.882;5.350;2024-01-30T04:27:35;39.05;;;6.68;;
18752;SDS011;9505;50.882;5.350;2024-01-30T04:30:01;38.88;;;7.25;;
18752;SDS011;9505;50.882;5.350;2024-01-30T04:32:26;41.90;;;7.50;;
18752;SDS011;9505;50.882;5.350;2024-01-30T04:34:52;34.95;;;6.60;;
18752;SDS011;9505;50.882;5.350;2024-01-30T04:37:17;38.50;;;6.70;;
18752;SDS011;9505;50.882;5.350;2024-01-30T04:39:43;41.75;;;7.22;;
18752;SDS011;9505;50.882;5.350;2024-01-30T04:42:09;43.80;;;7.60;;
18752;SDS011;9505;50.882;5.350;2024-01-30T04:44:34;46.00;;;7.85;;
18752;SDS011;9505;50.882;5.350;2024-01-30T04:47:00;40.38;;;7.20;;
18752;SDS011;9505;50.882;5.350;2024-01-30T04:49:26;45.97;;;7.70;;
18752;SDS011;9505;50.882;5.350;2024-01-30T04:51:52;36.40;;;6.68;;
18752;SDS011;9505;50.882;5.350;2024-01-30T04:54:18;33.15;;;6.75;;
18752;SDS011;9505;50.882;5.350;2024-01-30T04:56:44;37.75;;;7.53;;
18752;SDS011;9505;50.882;5.350;2024-01-30T04:59:09;33.67;;;7.10;;
18752;SDS011;9505;50.882;5.350;2024-01-30T05:01:35;34.67;;;7.05;;
18752;SDS011;9505;50.882;5.350;2024-01-30T05:04:00;40.35;;;7.22;;
18752;SDS011;9505;50.882;5.350;2024-01-30T05:06:27;47.05;;;7.82;;
18752;SDS011;9505;50.882;5.350;2024-01-30T05:08:53;35.05;;;7.13;;
18752;SDS011;9505;50.882;5.350;2024-01-30T05:11:18;37.90;;;7.20;;
18752;SDS011;9505;50.882;5.350;2024-01-30T05:13:44;38.97;;;7.22;;
18752;SDS011;9505;50.882;5.350;2024-01-30T05:16:10;31.80;;;5.82;;
18752;SDS011;9505;50.882;5.350;2024-01-30T05:18:35;33.97;;;6.72;;
18752;SDS011;9505;50.882;5.350;2024-01-30T05:21:02;45.17;;;7.78;;
18752;SDS011;9505;50.882;5.350;2024-01-30T05:23:28;41.95;;;8.48;;
18752;SDS011;9505;50.882;5.350;2024-01-30T05:25:54;37.10;;;7.68;;
18752;SDS011;9505;50.882;5.350;2024-01-30T05:28:20;39.13;;;7.10;;
18752;SDS011;9505;50.882;5.350;2024-01-30T05:30:45;40.72;;;7.35;;
18752;SDS011;9505;50.882;5.350;2024-01-30T05:33:11;37.92;;;7.20;;
18752;SDS011;9505;50.882;5.350;2024-01-30T05:35:37;44.67;;;8.90;;
18752;SDS011;9505;50.882;5.350;2024-01-30T05:38:03;39.30;;;7.55;;
18752;SDS011;9505;50.882;5.350;2024-01-30T05:40:29;49.35;;;7.82;;
18752;SDS011;9505;50.882;5.350;2024-01-30T05:42:55;31.75;;;6.50;;
18752;SDS011;9505;50.882;5.350;2024-01-30T05:45:23;43.83;;;7.57;;
18752;SDS011;9505;50.882;5.350;2024-01-30T05:47:48;40.83;;;8.13;;
18752;SDS011;9505;50.882;5.350;2024-01-30T05:50:14;29.70;;;6.35;;
18752;SDS011;9505;50.882;5.350;2024-01-30T05:52:40;43.80;;;7.38;;
18752;SDS011;9505;50.882;5.350;2024-01-30T05:55:05;41.55;;;7.38;;
18752;SDS011;9505;50.882;5.350;2024-01-30T05:57:31;42.22;;;7.18;;
18752;SDS011;9505;50.882;5.350;2024-01-30T05:59:57;35.63;;;7.30;;
18752;SDS011;9505;50.882;5.350;2024-01-30T06:02:23;43.20;;;7.28;;
18752;SDS011;9505;50.882;5.350;2024-01-30T06:04:48;38.60;;;6.78;;
18752;SDS011;9505;50.882;5.350;2024-01-30T06:07:14;37.13;;;7.22;;
18752;SDS011;9505;50.882;5.350;2024-01-30T06:09:40;37.05;;;7.90;;
18752;SDS011;9505;50.882;5.350;2024-01-30T06:12:06;44.55;;;6.93;;
18752;SDS011;9505;50.882;5.350;2024-01-30T06:14:31;39.05;;;7.05;;
18752;SDS011;9505;50.882;5.350;2024-01-30T06:16:58;43.53;;;10.93;;
18752;SDS011;9505;50.882;5.350;2024-01-30T06:19:24;44.53;;;7.45;;
18752;SDS011;9505;50.882;5.350;2024-01-30T06:21:49;45.42;;;7.65;;
18752;SDS011;9505;50.882;5.350;2024-01-30T06:24:15;44.47;;;7.55;;
18752;SDS011;9505;50.882;5.350;2024-01-30T06:26:41;35.70;;;6.97;;
18752;SDS011;9505;50.882;5.350;2024-01-30T06:29:06;37.20;;;6.80;;
18752;SDS011;9505;50.882;5.350;2024-01-30T06:31:32;43.67;;;7.88;;
18752;SDS011;9505;50.882;5.350;2024-01-30T06:33:58;38.03;;;7.28;;
18752;SDS011;9505;50.882;5.350;2024-01-30T06:36:24;38.95;;;7.55;;
18752;SDS011;9505;50.882;5.350;2024-01-30T06:38:49;41.95;;;7.28;;
18752;SDS011;9505;50.882;5.350;2024-01-30T06:41:15;38.75;;;7.18;;
18752;SDS011;9505;50.882;5.350;2024-01-30T06:43:40;44.63;;;7.93;;
18752;SDS011;9505;50.882;5.350;2024-01-30T06:46:06;37.40;;;7.38;;
18752;SDS011;9505;50.882;5.350;2024-01-30T06:48:32;41.50;;;7.82;;
18752;SDS011;9505;50.882;5.350;2024-01-30T06:50:57;42.83;;;7.72;;
18752;SDS011;9505;50.882;5.350;2024-01-30T06:53:23;37.85;;;7.53;;
18752;SDS011;9505;50.882;5.350;2024-01-30T06:55:49;45.60;;;7.50;;
18752;SDS011;9505;50.882;5.350;2024-01-30T06:58:16;37.25;;;7.07;;
18752;SDS011;9505;50.882;5.350;2024-01-30T07:00:42;36.95;;;7.13;;
18752;SDS011;9505;50.882;5.350;2024-01-30T07:03:08;44.30;;;8.00;;
18752;SDS011;9505;50.882;5.350;2024-01-30T07:05:33;34.10;;;7.60;;
18752;SDS011;9505;50.882;5.350;2024-01-30T07:07:59;38.13;;;7.25;;
18752;SDS011;9505;50.882;5.350;2024-01-30T07:10:24;51.67;;;8.38;;
18752;SDS011;9505;50.882;5.350;2024-01-30T07:12:50;36.05;;;7.22;;
18752;SDS011;9505;50.882;5.350;2024-01-30T07:15:16;44.88;;;9.13;;
18752;SDS011;9505;50.882;5.350;2024-01-30T07:17:44;39.95;;;7.78;;
18752;SDS011;9505;50.882;5.350;2024-01-30T07:20:11;38.20;;;7.13;;
18752;SDS011;9505;50.882;5.350;2024-01-30T07:22:36;37.53;;;8.07;;
18752;SDS011;9505;50.882;5.350;2024-01-30T07:25:02;42.28;;;8.18;;
18752;SDS011;9505;50.882;5.350;2024-01-30T07:27:28;51.47;;;8.60;;
18752;SDS011;9505;50.882;5.350;2024-01-30T07:29:54;45.38;;;7.57;;
18752;SDS011;9505;50.882;5.350;2024-01-30T07:32:19;45.47;;;8.35;;
18752;SDS011;9505;50.882;5.350;2024-01-30T07:34:45;40.63;;;7.53;;
18752;SDS011;9505;50.882;5.350;2024-01-30T07:37:10;34.30;;;6.82;;
18752;SDS011;9505;50.882;5.350;2024-01-30T07:39:40;36.88;;;7.53;;
18752;SDS011;9505;50.882;5.350;2024-01-30T07:42:06;47.00;;;7.82;;
18752;SDS011;9505;50.882;5.350;2024-01-30T07:44:31;42.00;;;7.97;;
18752;SDS011;9505;50.882;5.350;2024-01-30T07:46:57;52.80;;;8.57;;
18752;SDS011;9505;50.882;5.350;2024-01-30T07:49:23;37.00;;;7.20;;
18752;SDS011;9505;50.882;5.350;2024-01-30T07:51:48;43.88;;;8.63;;
18752;SDS011;9505;50.882;5.350;2024-01-30T07:54:14;31.02;;;6.57;;
18752;SDS011;9505;50.882;5.350;2024-01-30T07:56:40;35.85;;;7.22;;
18752;SDS011;9505;50.882;5.350;2024-01-30T07:59:09;34.97;;;6.68;;
18752;SDS011;9505;50.882;5.350;2024-01-30T08:01:35;34.67;;;6.88;;
18752;SDS011;9505;50.882;5.350;2024-01-30T08:04:00;39.53;;;7.50;;
18752;SDS011;9505;50.882;5.350;2024-01-30T08:06:26;46.10;;;8.30;;
18752;SDS011;9505;50.882;5.350;2024-01-30T08:08:51;49.45;;;7.75;;
18752;SDS011;9505;50.882;5.350;2024-01-30T08:11:19;38.63;;;6.93;;
18752;SDS011;9505;50.882;5.350;2024-01-30T08:13:50;47.55;;;8.38;;
18752;SDS011;9505;50.882;5.350;2024-01-30T08:16:16;35.63;;;7.10;;
18752;SDS011;9505;50.882;5.350;2024-01-30T08:18:42;43.13;;;7.68;;
18752;SDS011;9505;50.882;5.350;2024-01-30T08:21:08;42.55;;;7.28;;
18752;SDS011;9505;50.882;5.350;2024-01-30T08:23:34;42.20;;;7.40;;
18752;SDS011;9505;50.882;5.350;2024-01-30T08:25:59;37.45;;;6.93;;
18752;SDS011;9505;50.882;5.350;2024-01-30T08:28:25;39.00;;;7.60;;
18752;SDS011;9505;50.882;5.350;2024-01-30T08:30:51;45.45;;;7.68;;
18752;SDS011;9505;50.882;5.350;2024-01-30T08:33:17;42.28;;;7.70;;
18752;SDS011;9505;50.882;5.350;2024-01-30T08:35:43;43.30;;;9.10;;
18752;SDS011;9505;50.882;5.350;2024-01-30T08:38:08;37.67;;;8.57;;
18752;SDS011;9505;50.882;5.350;2024-01-30T08:40:34;40.55;;;7.38;;
18752;SDS011;9505;50.882;5.350;2024-01-30T08:43:00;42.13;;;7.90;;
18752;SDS011;9505;50.882;5.350;2024-01-30T08:45:26;39.38;;;6.82;;
18752;SDS011;9505;50.882;5.350;2024-01-30T08:47:51;38.17;;;6.80;;
18752;SDS011;9505;50.882;5.350;2024-01-30T08:50:17;35.13;;;7.25;;
18752;SDS011;9505;50.882;5.350;2024-01-30T08:52:43;45.58;;;7.82;;
18752;SDS011;9505;50.882;5.350;2024-01-30T08:55:08;43.08;;;7.40;;
18752;SDS011;9505;50.882;5.350;2024-01-30T08:57:34;38.22;;;7.60;;
18752;SDS011;9505;50.882;5.350;2024-01-30T09:00:00;39.72;;;6.93;;
18752;SDS011;9505;50.882;5.350;2024-01-30T09:02:29;35.58;;;7.07;;
18752;SDS011;9505;50.882;5.350;2024-01-30T09:04:55;40.90;;;7.35;;
18752;SDS011;9505;50.882;5.350;2024-01-30T09:07:20;36.63;;;6.30;;
18752;SDS011;9505;50.882;5.350;2024-01-30T09:09:46;30.20;;;5.82;;
18752;SDS011;9505;50.882;5.350;2024-01-30T09:12:11;35.10;;;6.97;;
18752;SDS011;9505;50.882;5.350;2024-01-30T09:14:38;37.22;;;7.18;;
18752;SDS011;9505;50.882;5.350;2024-01-30T09:17:05;32.13;;;6.97;;
18752;SDS011;9505;50.882;5.350;2024-01-30T09:19:30;31.17;;;6.32;;
18752;SDS011;9505;50.882;5.350;2024-01-30T09:21:56;30.75;;;6.85;;
18752;SDS011;9505;50.882;5.350;2024-01-30T09:24:22;28.55;;;5.50;;
18752;SDS011;9505;50.882;5.350;2024-01-30T09:26:47;30.02;;;6.72;;
18752;SDS011;9505;50.882;5.350;2024-01-30T09:29:13;27.77;;;6.13;;
18752;SDS011;9505;50.882;5.350;2024-01-30T09:31:39;25.15;;;5.80;;
18752;SDS011;9505;50.882;5.350;2024-01-30T09:34:04;32.55;;;6.28;;
18752;SDS011;9505;50.882;5.350;2024-01-30T09:36:31;23.40;;;5.55;;
18752;SDS011;9505;50.882;5.350;2024-01-30T09:38:57;29.25;;;5.55;;
18752;SDS011;9505;50.882;5.350;2024-01-30T09:41:23;21.52;;;5.63;;
18752;SDS011;9505;50.882;5.350;2024-01-30T09:43:50;37.33;;;6.80;;
18752;SDS011;9505;50.882;5.350;2024-01-30T09:46:16;19.83;;;5.03;;
18752;SDS011;9505;50.882;5.350;2024-01-30T09:48:48;27.33;;;5.78;;
18752;SDS011;9505;50.882;5.350;2024-01-30T09:51:14;31.45;;;6.20;;
18752;SDS011;9505;50.882;5.350;2024-01-30T09:53:42;33.15;;;6.45;;
18752;SDS011;9505;50.882;5.350;2024-01-30T09:56:09;41.40;;;6.82;;
18752;SDS011;9505;50.882;5.350;2024-01-30T09:58:36;41.17;;;8.57;;
18752;SDS011;9505;50.882;5.350;2024-01-30T10:01:01;16.17;;;4.88;;
18752;SDS011;9505;50.882;5.350;2024-01-30T10:03:27;31.42;;;6.32;;
18752;SDS011;9505;50.882;5.350;2024-01-30T10:05:53;18.35;;;4.97;;
18752;SDS011;9505;50.882;5.350;2024-01-30T10:08:21;30.38;;;5.47;;
18752;SDS011;9505;50.882;5.350;2024-01-30T10:10:47;25.55;;;5.88;;
18752;SDS011;9505;50.882;5.350;2024-01-30T10:13:13;25.15;;;6.05;;
18752;SDS011;9505;50.882;5.350;2024-01-30T10:15:38;28.85;;;6.30;;
18752;SDS011;9505;50.882;5.350;2024-01-30T10:18:05;31.15;;;6.05;;
18752;SDS011;9505;50.882;5.350;2024-01-30T10:20:32;27.67;;;5.97;;
18752;SDS011;9505;50.882;5.350;2024-01-30T10:22:58;31.10;;;6.03;;
18752;SDS011;9505;50.882;5.350;2024-01-30T10:25:24;41.30;;;8.05;;
18752;SDS011;9505;50.882;5.350;2024-01-30T10:27:54;27.08;;;8.20;;
18752;SDS011;9505;50.882;5.350;2024-01-30T10:30:20;44.92;;;8.20;;
18752;SDS011;9505;50.882;5.350;2024-01-30T10:32:46;31.30;;;7.03;;
18752;SDS011;9505;50.882;5.350;2024-01-30T10:35:12;40.40;;;7.53;;
18752;SDS011;9505;50.882;5.350;2024-01-30T10:37:38;32.95;;;7.38;;
18752;SDS011;9505;50.882;5.350;2024-01-30T10:40:04;39.00;;;6.60;;
18752;SDS011;9505;50.882;5.350;2024-01-30T10:42:31;28.83;;;6.80;;
18752;SDS011;9505;50.882;5.350;2024-01-30T10:45:07;34.03;;;7.70;;
18752;SDS011;9505;50.882;5.350;2024-01-30T10:47:36;27.63;;;6.93;;
18752;SDS011;9505;50.882;5.350;2024-01-30T10:50:03;38.42;;;7.35;;
18752;SDS011;9505;50.882;5.350;2024-01-30T10:52:29;37.85;;;7.10;;
18752;SDS011;9505;50.882;5.350;2024-01-30T10:54:56;33.65;;;7.68;;
18752;SDS011;9505;50.882;5.350;2024-01-30T10:57:23;34.08;;;7.00;;
18752;SDS011;9505;50.882;5.350;2024-01-30T11:00:02;35.45;;;8.45;;
18752;SDS011;9505;50.882;5.350;2024-01-30T11:02:39;97.32;;;12.68;;
18752;SDS011;9505;50.882;5.350;2024-01-30T11:05:07;44.78;;;8.88;;
18752;SDS011;9505;50.882;5.350;2024-01-30T11:07:33;37.70;;;7.38;;
18752;SDS011;9505;50.882;5.350;2024-01-30T11:12:28;43.95;;;8.40;;
18752;SDS011;9505;50.882;5.350;2024-01-30T11:15:02;45.75;;;8.70;;
18752;SDS011;9505;50.882;5.350;2024-01-30T11:20:14;34.70;;;7.43;;
18752;SDS011;9505;50.882;5.350;2024-01-30T11:22:52;42.83;;;8.30;;
18752;SDS011;9505;50.882;5.350;2024-01-30T11:25:22;46.70;;;8.75;;
18752;SDS011;9505;50.882;5.350;2024-01-30T11:27:50;40.63;;;9.32;;
18752;SDS011;9505;50.882;5.350;2024-01-30T11:30:20;36.40;;;8.20;;
18752;SDS011;9505;50.882;5.350;2024-01-30T11:32:57;45.58;;;8.90;;
18752;SDS011;9505;50.882;5.350;2024-01-30T11:35:23;36.95;;;7.88;;
18752;SDS011;9505;50.882;5.350;2024-01-30T11:37:50;40.15;;;8.10;;
18752;SDS011;9505;50.882;5.350;2024-01-30T11:40:16;33.63;;;7.90;;
18752;SDS011;9505;50.882;5.350;2024-01-30T11:42:42;46.38;;;8.70;;
18752;SDS011;9505;50.882;5.350;2024-01-30T11:45:08;27.85;;;7.25;;
18752;SDS011;9505;50.882;5.350;2024-01-30T11:47:35;25.65;;;7.15;;
18752;SDS011;9505;50.882;5.350;2024-01-30T11:50:03;30.60;;;7.05;;
18752;SDS011;9505;50.882;5.350;2024-01-30T11:52:31;65.53;;;11.27;;
18752;SDS011;9505;50.882;5.350;2024-01-30T11:54:58;44.55;;;9.15;;
18752;SDS011;9505;50.882;5.350;2024-01-30T11:57:26;38.65;;;8.10;;
18752;SDS011;9505;50.882;5.350;2024-01-30T11:59:52;38.13;;;8.13;;
18752;SDS011;9505;50.882;5.350;2024-01-30T12:02:17;43.28;;;9.10;;
18752;SDS011;9505;50.882;5.350;2024-01-30T12:04:43;35.42;;;7.72;;
18752;SDS011;9505;50.882;5.350;2024-01-30T12:07:09;33.50;;;7.85;;
18752;SDS011;9505;50.882;5.350;2024-01-30T12:09:36;39.05;;;9.98;;
18752;SDS011;9505;50.882;5.350;2024-01-30T12:12:01;40.83;;;8.55;;
18752;SDS011;9505;50.882;5.350;2024-01-30T12:14:27;32.67;;;8.85;;
18752;SDS011;9505;50.882;5.350;2024-01-30T12:16:53;34.88;;;9.50;;
18752;SDS011;9505;50.882;5.350;2024-01-30T12:19:22;42.90;;;8.93;;
18752;SDS011;9505;50.882;5.350;2024-01-30T12:21:56;40.50;;;9.10;;
18752;SDS011;9505;50.882;5.350;2024-01-30T12:24:24;42.05;;;9.00;;
18752;SDS011;9505;50.882;5.350;2024-01-30T12:26:50;34.03;;;8.25;;
18752;SDS011;9505;50.882;5.350;2024-01-30T12:29:17;38.20;;;8.98;;
18752;SDS011;9505;50.882;5.350;2024-01-30T12:31:42;75.97;;;12.00;;
18752;SDS011;9505;50.882;5.350;2024-01-30T12:34:09;50.10;;;9.43;;
18752;SDS011;9505;50.882;5.350;2024-01-30T12:36:35;42.97;;;9.25;;
18752;SDS011;9505;50.882;5.350;2024-01-30T12:39:00;42.83;;;8.82;;
18752;SDS011;9505;50.882;5.350;2024-01-30T12:41:26;43.28;;;9.50;;
18752;SDS011;9505;50.882;5.350;2024-01-30T12:43:54;34.13;;;8.95;;
18752;SDS011;9505;50.882;5.350;2024-01-30T12:46:19;42.05;;;8.85;;
18752;SDS011;9505;50.882;5.350;2024-01-30T12:48:45;27.67;;;7.65;;
18752;SDS011;9505;50.882;5.350;2024-01-30T12:51:11;22.77;;;6.97;;
18752;SDS011;9505;50.882;5.350;2024-01-30T12:53:36;30.48;;;7.22;;
18752;SDS011;9505;50.882;5.350;2024-01-30T12:56:02;30.80;;;5.65;;
18752;SDS011;9505;50.882;5.350;2024-01-30T12:58:28;25.35;;;4.82;;
18752;SDS011;9505;50.882;5.350;2024-01-30T13:00:54;28.10;;;4.20;;
18752;SDS011;9505;50.882;5.350;2024-01-30T13:03:20;32.20;;;4.95;;
18752;SDS011;9505;50.882;5.350;2024-01-30T13:05:45;42.83;;;5.38;;
18752;SDS011;9505;50.882;5.350;2024-01-30T13:08:11;40.75;;;5.10;;
18752;SDS011;9505;50.882;5.350;2024-01-30T13:10:37;26.83;;;4.43;;
18752;SDS011;9505;50.882;5.350;2024-01-30T13:13:02;22.83;;;3.45;;
18752;SDS011;9505;50.882;5.350;2024-01-30T13:15:28;34.30;;;4.30;;
18752;SDS011;9505;50.882;5.350;2024-01-30T13:17:54;15.73;;;2.80;;
18752;SDS011;9505;50.882;5.350;2024-01-30T13:20:19;26.00;;;3.95;;
18752;SDS011;9505;50.882;5.350;2024-01-30T13:22:48;32.90;;;4.25;;
18752;SDS011;9505;50.882;5.350;2024-01-30T13:25:15;28.42;;;3.65;;
18752;SDS011;9505;50.882;5.350;2024-01-30T13:27:41;40.20;;;4.78;;
18752;SDS011;9505;50.882;5.350;2024-01-30T13:30:06;20.15;;;2.80;;
18752;SDS011;9505;50.882;5.350;2024-01-30T13:32:34;32.40;;;4.07;;
18752;SDS011;9505;50.882;5.350;2024-01-30T13:35:00;21.80;;;2.80;;
18752;SDS011;9505;50.882;5.350;2024-01-30T13:37:25;31.42;;;3.47;;
18752;SDS011;9505;50.882;5.350;2024-01-30T13:39:51;29.35;;;3.30;;
18752;SDS011;9505;50.882;5.350;2024-01-30T13:42:16;23.10;;;2.80;;
18752;SDS011;9505;50.882;5.350;2024-01-30T13:44:42;24.45;;;2.65;;
18752;SDS011;9505;50.882;5.350;2024-01-30T13:47:10;29.15;;;3.38;;
18752;SDS011;9505;50.882;5.350;2024-01-30T13:49:36;33.40;;;3.58;;
18752;SDS011;9505;50.882;5.350;2024-01-30T13:52:02;26.33;;;3.17;;
18752;SDS011;9505;50.882;5.350;2024-01-30T13:54:28;25.70;;;2.95;;
18752;SDS011;9505;50.882;5.350;2024-01-30T13:56:55;33.22;;;3.42;;
18752;SDS011;9505;50.882;5.350;2024-01-30T13:59:21;31.83;;;3.45;;
18752;SDS011;9505;50.882;5.350;2024-01-30T14:01:49;25.85;;;3.30;;
18752;SDS011;9505;50.882;5.350;2024-01-30T14:04:16;17.70;;;2.03;;
18752;SDS011;9505;50.882;5.350;2024-01-30T14:06:42;14.63;;;1.83;;
18752;SDS011;9505;50.882;5.350;2024-01-30T14:09:08;24.45;;;2.75;;
18752;SDS011;9505;50.882;5.350;2024-01-30T14:11:34;24.27;;;2.88;;
18752;SDS011;9505;50.882;5.350;2024-01-30T14:14:00;29.80;;;3.30;;
18752;SDS011;9505;50.882;5.350;2024-01-30T14:16:25;26.30;;;2.72;;
18752;SDS011;9505;50.882;5.350;2024-01-30T14:18:51;13.10;;;1.55;;
18752;SDS011;9505;50.882;5.350;2024-01-30T14:21:16;19.38;;;2.35;;
18752;SDS011;9505;50.882;5.350;2024-01-30T14:23:42;21.27;;;2.35;;
18752;SDS011;9505;50.882;5.350;2024-01-30T14:26:08;15.20;;;1.83;;
18752;SDS011;9505;50.882;5.350;2024-01-30T14:28:33;29.80;;;3.30;;
18752;SDS011;9505;50.882;5.350;2024-01-30T14:30:59;13.02;;;1.52;;
18752;SDS011;9505;50.882;5.350;2024-01-30T14:33:24;20.20;;;2.30;;
18752;SDS011;9505;50.882;5.350;2024-01-30T14:35:51;33.35;;;3.67;;
18752;SDS011;9505;50.882;5.350;2024-01-30T14:38:16;21.70;;;2.50;;
18752;SDS011;9505;50.882;5.350;2024-01-30T14:40:42;24.70;;;3.00;;
18752;SDS011;9505;50.882;5.350;2024-01-30T14:43:08;15.52;;;1.90;;
18752;SDS011;9505;50.882;5.350;2024-01-30T14:45:33;22.83;;;2.53;;
18752;SDS011;9505;50.882;5.350;2024-01-30T14:47:59;24.63;;;2.78;;